createdAt,value
2023-03-22T00:01:48.955Z,47.61
2023-03-22T00:04:15.623Z,47.94
2023-03-22T00:06:44.649Z,48.18
2023-03-22T00:09:11.402Z,47.90
2023-03-22T00:11:42.930Z,47.83
2023-03-22T00:14:12.006Z,48.81
2023-03-22T00:16:38.557Z,48.64
2023-03-22T00:19:07.797Z,48.21
2023-03-22T00:21:34.433Z,48.10
2023-03-22T00:24:03.984Z,48.19
2023-03-22T00:26:30.574Z,48.69
2023-03-22T00:28:57.184Z,48.58
2023-03-22T00:31:23.897Z,49.19
2023-03-22T00:33:50.648Z,49.13
2023-03-22T00:36:17.214Z,49.03
2023-03-22T00:38:44.615Z,49.50
2023-03-22T00:41:11.895Z,49.88
2023-03-22T00:43:38.527Z,50.48
2023-03-22T00:46:05.841Z,49.44
2023-03-22T00:48:35.209Z,49.39
2023-03-22T00:51:01.910Z,49.63
2023-03-22T00:53:33.322Z,49.87
2023-03-22T00:56:02.290Z,49.82
2023-03-22T00:58:35.224Z,50.35
2023-03-22T01:01:02.050Z,51.09
2023-03-22T01:03:29.161Z,51.07
2023-03-22T01:05:58.156Z,50.50
2023-03-22T01:08:24.997Z,50.80
2023-03-22T01:10:51.735Z,50.73
2023-03-22T01:13:20.737Z,50.56
2023-03-22T01:15:50.230Z,50.21
2023-03-22T01:18:17.433Z,50.55
2023-03-22T01:20:48.561Z,50.63
2023-03-22T01:23:16.079Z,50.67
2023-03-22T01:25:45.224Z,50.48
2023-03-22T01:28:12.006Z,50.42
2023-03-22T01:30:40.039Z,51.06
2023-03-22T01:33:08.198Z,52.43
2023-03-22T01:35:36.095Z,53.85
2023-03-22T01:38:09.128Z,54.76
2023-03-22T01:40:44.226Z,55.13
2023-03-22T01:43:15.763Z,55.28
2023-03-22T01:45:46.049Z,54.85
2023-03-22T01:48:14.459Z,55.13
2023-03-22T01:50:44.507Z,54.79
2023-03-22T01:53:11.351Z,53.90
2023-03-22T01:55:38.405Z,53.82
2023-03-22T01:58:16.031Z,53.49
2023-03-22T02:00:48.628Z,53.37
2023-03-22T02:03:42.700Z,53.15
2023-03-22T02:06:11.626Z,53.91
2023-03-22T02:08:40.824Z,53.41
2023-03-22T02:11:22.105Z,53.37
2023-03-22T02:14:09.533Z,53.71
2023-03-22T02:17:13.491Z,54.00
2023-03-22T02:19:47.523Z,53.65
2023-03-22T02:22:14.595Z,53.95
2023-03-22T02:24:46.255Z,53.64
2023-03-22T02:27:21.246Z,53.31
2023-03-22T02:29:54.360Z,53.92
2023-03-22T02:33:00.226Z,53.71
2023-03-22T02:35:33.820Z,53.66
2023-03-22T02:38:19.451Z,54.39
2023-03-22T02:40:58.886Z,54.39
2023-03-22T02:43:30.911Z,54.11
2023-03-22T02:46:20.022Z,54.67
2023-03-22T02:48:54.527Z,54.28
2023-03-22T02:51:22.070Z,54.19
2023-03-22T02:53:52.202Z,54.33
2023-03-22T02:56:18.910Z,54.42
2023-03-22T02:58:46.859Z,54.17
2023-03-22T03:01:15.412Z,54.18
2023-03-22T03:03:48.558Z,53.80
2023-03-22T03:06:20.167Z,53.89
2023-03-22T03:08:51.357Z,53.33
2023-03-22T03:11:18.221Z,53.17
2023-03-22T03:13:48.090Z,53.49
2023-03-22T03:16:23.504Z,53.24
2023-03-22T03:18:50.597Z,53.44
2023-03-22T03:21:20.582Z,53.20
2023-03-22T03:23:49.930Z,53.98
2023-03-22T03:26:19.860Z,53.33
2023-03-22T03:28:55.479Z,53.16
2023-03-22T03:31:28.292Z,53.07
2023-03-22T03:34:00.303Z,52.81
2023-03-22T03:36:27.064Z,53.04
2023-03-22T03:38:56.023Z,53.19
2023-03-22T03:41:28.538Z,52.99
2023-03-22T03:43:56.282Z,53.15
2023-03-22T03:46:23.043Z,53.44
2023-03-22T03:48:50.256Z,53.85
2023-03-22T03:51:19.274Z,54.69
2023-03-22T03:53:46.127Z,54.62
2023-03-22T03:56:12.944Z,54.43
2023-03-22T03:58:44.241Z,54.46
2023-03-22T04:01:11.277Z,54.45
2023-03-22T04:03:55.373Z,54.48
2023-03-22T04:06:44.982Z,55.30
2023-03-22T04:09:17.185Z,55.15
2023-03-22T04:11:50.058Z,55.64
2023-03-22T04:14:17.114Z,55.13
2023-03-22T04:16:46.987Z,54.98
2023-03-22T04:19:18.806Z,54.51
2023-03-22T04:21:48.218Z,54.35
2023-03-22T04:24:15.798Z,54.49
2023-03-22T04:26:45.202Z,54.33
2023-03-22T04:29:51.403Z,55.41
2023-03-22T04:32:43.795Z,55.17
2023-03-22T04:35:13.194Z,55.08
2023-03-22T04:37:43.181Z,54.79
2023-03-22T04:40:21.160Z,54.91
2023-03-22T04:43:03.031Z,54.96
2023-03-22T04:45:46.226Z,55.31
2023-03-22T04:48:22.325Z,55.53
2023-03-22T04:50:54.574Z,55.38
2023-03-22T04:53:27.597Z,55.29
2023-03-22T04:55:59.137Z,55.23
2023-03-22T04:58:30.905Z,55.19
2023-03-22T05:00:58.503Z,55.35
2023-03-22T05:03:25.129Z,55.32
2023-03-22T05:05:56.385Z,55.61
2023-03-22T05:08:27.461Z,56.07
2023-03-22T05:10:54.471Z,55.82
2023-03-22T05:13:37.468Z,55.72
2023-03-22T05:16:43.029Z,56.19
2023-03-22T05:19:14.443Z,55.94
2023-03-22T05:22:04.221Z,56.03
2023-03-22T05:25:14.820Z,55.78
2023-03-22T05:28:01.854Z,55.65
2023-03-22T05:30:49.281Z,55.80
2023-03-22T05:33:51.809Z,55.06
2023-03-22T05:36:21.105Z,55.10
2023-03-22T05:39:09.943Z,54.91
2023-03-22T05:41:37.118Z,55.08
2023-03-22T05:44:06.743Z,55.47
2023-03-22T05:46:35.993Z,55.35
2023-03-22T05:49:21.532Z,55.56
2023-03-22T05:51:48.928Z,55.16
2023-03-22T05:54:16.763Z,54.66
2023-03-22T05:56:49.122Z,54.54
2023-03-22T05:59:18.468Z,54.24
2023-03-22T06:01:45.179Z,54.22
2023-03-22T06:04:18.744Z,53.93
2023-03-22T06:07:04.224Z,53.67
2023-03-22T06:09:41.921Z,53.85
2023-03-22T06:12:16.147Z,53.63
2023-03-22T06:14:46.756Z,53.28
2023-03-22T06:17:22.063Z,53.23
2023-03-22T06:19:48.917Z,53.48
2023-03-22T06:22:16.414Z,53.42
2023-03-22T06:24:44.035Z,53.36
2023-03-22T06:27:16.518Z,53.36
2023-03-22T06:29:43.240Z,53.39
2023-03-22T06:32:12.359Z,53.39
2023-03-22T06:34:39.405Z,53.21
2023-03-22T06:37:07.134Z,52.77
2023-03-22T06:39:39.651Z,52.66
2023-03-22T06:42:12.473Z,52.33
2023-03-22T06:44:42.350Z,52.48
2023-03-22T06:47:14.479Z,51.86
2023-03-22T06:49:47.633Z,50.86
2023-03-22T06:52:21.901Z,50.43
2023-03-22T06:54:48.731Z,50.06
2023-03-22T06:57:15.768Z,50.18
2023-03-22T06:59:42.353Z,50.26
2023-03-22T07:02:12.868Z,50.69
2023-03-22T07:04:43.408Z,49.72
2023-03-22T07:07:12.572Z,49.46
2023-03-22T07:09:40.209Z,49.06
2023-03-22T07:12:07.045Z,49.04
2023-03-22T07:14:36.551Z,49.00
2023-03-22T07:17:31.512Z,48.59
2023-03-22T07:19:58.116Z,48.16
2023-03-22T07:22:27.380Z,48.05
2023-03-22T07:24:58.260Z,47.58
2023-03-22T07:27:28.616Z,47.08
2023-03-22T07:29:58.545Z,47.06
2023-03-22T07:32:25.447Z,46.51
2023-03-22T07:35:07.693Z,46.08
2023-03-22T07:37:36.997Z,46.40
2023-03-22T07:40:08.795Z,46.56
2023-03-22T07:42:36.268Z,45.83
2023-03-22T07:45:09.185Z,45.81
2023-03-22T07:47:45.018Z,45.57
2023-03-22T07:50:31.649Z,45.42
2023-03-22T07:53:00.434Z,45.53
2023-03-22T07:55:27.182Z,44.54
2023-03-22T07:57:56.589Z,45.41
2023-03-22T08:00:23.576Z,44.92
2023-03-22T08:03:01.817Z,43.65
2023-03-22T08:05:51.802Z,44.39
2023-03-22T08:08:19.891Z,44.29
2023-03-22T08:10:53.010Z,44.94
2023-03-22T08:13:20.162Z,44.44
2023-03-22T08:15:49.449Z,44.50
2023-03-22T08:18:19.305Z,44.90
2023-03-22T08:20:52.411Z,44.01
2023-03-22T08:23:26.433Z,44.12
2023-03-22T08:26:17.905Z,44.28
2023-03-22T08:28:47.854Z,44.32
2023-03-22T08:31:15.541Z,43.96
2023-03-22T08:33:44.306Z,44.50
2023-03-22T08:36:12.871Z,44.06
2023-03-22T08:38:46.305Z,44.12
2023-03-22T08:41:18.746Z,44.64
2023-03-22T08:43:50.944Z,45.30
2023-03-22T08:46:17.793Z,45.23
2023-03-22T08:48:54.260Z,45.21
2023-03-22T08:51:31.265Z,44.41
2023-03-22T08:54:12.549Z,44.03
2023-03-22T08:56:59.320Z,44.70
2023-03-22T08:59:54.472Z,44.52
2023-03-22T09:02:38.100Z,43.33
2023-03-22T09:05:04.986Z,43.08
2023-03-22T09:07:32.302Z,42.69
2023-03-22T09:10:16.934Z,42.78
2023-03-22T09:12:46.034Z,42.81
2023-03-22T09:15:12.775Z,43.42
2023-03-22T09:17:45.568Z,42.97
2023-03-22T09:20:13.419Z,43.89
2023-03-22T09:22:45.960Z,43.20
2023-03-22T09:25:15.619Z,42.34
2023-03-22T09:27:47.452Z,41.66
2023-03-22T09:30:14.388Z,41.68
2023-03-22T09:32:41.519Z,40.83
2023-03-22T09:35:10.937Z,41.42
2023-03-22T09:37:53.489Z,42.26
2023-03-22T09:40:21.390Z,42.76
2023-03-22T09:42:52.505Z,42.85
2023-03-22T09:45:21.277Z,42.89
2023-03-22T09:47:49.271Z,43.08
2023-03-22T09:50:22.095Z,42.61
2023-03-22T09:52:48.944Z,42.72
2023-03-22T09:55:19.521Z,43.05
2023-03-22T09:57:48.947Z,43.48
2023-03-22T10:00:21.024Z,43.57
2023-03-22T10:03:06.265Z,43.15
2023-03-22T10:05:38.946Z,42.80
2023-03-22T10:08:14.525Z,42.97
2023-03-22T10:10:42.154Z,43.29
2023-03-22T10:13:24.198Z,43.92
2023-03-22T10:15:52.316Z,44.37
2023-03-22T10:18:25.820Z,44.70
2023-03-22T10:20:58.404Z,43.86
2023-03-22T10:23:28.201Z,43.89
2023-03-22T10:25:54.923Z,44.42
2023-03-22T10:28:22.642Z,44.06
2023-03-22T10:30:53.697Z,43.95
2023-03-22T10:33:39.777Z,43.65
2023-03-22T10:36:10.349Z,43.39
2023-03-22T10:38:37.594Z,43.43
2023-03-22T10:41:06.791Z,43.44
2023-03-22T10:43:36.901Z,43.08
2023-03-22T10:46:07.784Z,43.17
2023-03-22T10:48:44.730Z,43.35
2023-03-22T10:51:12.138Z,43.09
2023-03-22T10:53:40.016Z,43.77
2023-03-22T10:56:10.630Z,44.09
2023-03-22T10:58:37.433Z,44.53
2023-03-22T11:01:08.483Z,44.46
2023-03-22T11:03:35.261Z,44.11
2023-03-22T11:06:22.166Z,44.01
2023-03-22T11:08:48.811Z,43.42
2023-03-22T11:11:31.716Z,43.69
2023-03-22T11:14:08.494Z,43.75
2023-03-22T11:16:47.693Z,44.05
2023-03-22T11:19:15.265Z,44.50
2023-03-22T11:21:44.571Z,44.65
2023-03-22T11:24:11.568Z,44.81
2023-03-22T11:26:40.905Z,44.36
2023-03-22T11:29:17.082Z,44.56
2023-03-22T11:31:56.140Z,44.06
2023-03-22T11:34:27.102Z,44.27
2023-03-22T11:36:57.184Z,44.19
2023-03-22T11:39:30.527Z,44.16
2023-03-22T11:41:58.887Z,43.23
2023-03-22T11:44:26.267Z,43.11
2023-03-22T11:46:55.027Z,42.71
2023-03-22T11:49:27.068Z,42.58
2023-03-22T11:51:54.545Z,42.04
2023-03-22T11:54:32.246Z,42.20
2023-03-22T11:57:00.064Z,41.74
2023-03-22T11:59:28.737Z,41.49
2023-03-22T12:01:58.110Z,41.24
2023-03-22T12:04:30.498Z,40.11
2023-03-22T12:06:58.634Z,38.91
2023-03-22T12:09:25.855Z,38.46
2023-03-22T12:11:53.770Z,38.45
2023-03-22T12:14:31.518Z,37.76
2023-03-22T12:17:01.329Z,37.75
2023-03-22T12:19:41.653Z,37.45
2023-03-22T12:22:12.072Z,38.38
2023-03-22T12:24:39.231Z,38.47
2023-03-22T12:27:24.489Z,37.93
2023-03-22T12:29:59.653Z,37.14
2023-03-22T12:32:41.952Z,36.87
2023-03-22T12:35:17.528Z,37.05
2023-03-22T12:37:53.688Z,36.46
2023-03-22T12:40:22.779Z,37.44
2023-03-22T12:42:55.566Z,37.67
2023-03-22T12:45:25.004Z,36.88
2023-03-22T12:47:54.026Z,36.70
2023-03-22T12:50:25.124Z,36.07
2023-03-22T12:52:59.500Z,34.67
2023-03-22T12:55:27.765Z,33.92
2023-03-22T12:57:57.649Z,33.70
2023-03-22T13:00:27.683Z,34.09
2023-03-22T13:03:15.168Z,35.56
2023-03-22T13:05:43.884Z,34.68
2023-03-22T13:08:13.066Z,34.35
2023-03-22T13:10:48.674Z,34.14
2023-03-22T13:13:24.254Z,33.56
2023-03-22T13:15:54.309Z,32.37
2023-03-22T13:18:33.122Z,31.60
2023-03-22T13:21:10.312Z,31.24
2023-03-22T13:23:39.437Z,31.55
2023-03-22T13:26:09.793Z,31.20
2023-03-22T13:28:39.047Z,31.20
2023-03-22T13:31:17.284Z,31.30
2023-03-22T13:33:45.974Z,30.39
2023-03-22T13:36:29.563Z,29.84
2023-03-22T13:38:57.332Z,29.33
2023-03-22T13:41:38.017Z,29.10
2023-03-22T13:44:41.757Z,29.95
2023-03-22T13:47:09.560Z,31.00
2023-03-22T13:49:49.649Z,31.12
2023-03-22T13:52:46.230Z,31.24
2023-03-22T13:55:38.686Z,32.61
2023-03-22T13:59:05.668Z,33.06
2023-03-22T14:01:44.418Z,32.44
2023-03-22T14:09:00.167Z,33.32
2023-03-22T14:11:44.346Z,32.90
2023-03-22T14:14:13.356Z,32.84
2023-03-22T14:17:00.488Z,32.46
